Time,TemperatureF,DewpointF,PressureIn,WindDirection,WindDirectionDegrees,WindSpeedMPH,WindSpeedGustMPH,Humidity,HourlyPrecipIn,Conditions,Clouds,dailyrainin,SoftwareType,DateUTC
2013-06-20 16:35:00,76.7,42.9,30.15,South,190,1.0,2.0,30,0.00,,,0.00,Wunderground v.1.15,2013-06-20 20:35:00,
2013-06-20 16:40:00,76.6,43.7,30.15,SE,127,1.0,2.0,31,0.00,,,0.00,Wunderground v.1.15,2013-06-20 20:40:00,
2013-06-20 16:45:00,77.0,43.2,30.15,West,271,0.0,0.0,30,0.00,,,0.00,Wunderground v.1.15,2013-06-20 20:45:00,
2013-06-20 16:55:00,76.4,43.5,30.15,SSE,166,0.0,3.0,31,0.00,,,0.00,Wunderground v.1.15,2013-06-20 20:55:00,
2013-06-20 17:00:00,76.0,43.2,30.15,SSE,148,1.0,1.0,31,0.00,,,0.00,Wunderground v.1.15,2013-06-20 21:00:00,
2013-06-20 17:05:00,76.1,44.9,30.15,SSW,203,1.0,1.0,33,0.00,,,0.00,Wunderground v.1.15,2013-06-20 21:05:00,
2013-06-20 17:10:00,76.3,47.4,30.15,NNW,330,0.0,1.0,36,0.00,,,0.00,Wunderground v.1.15,2013-06-20 21:10:00,
2013-06-20 17:15:00,76.0,43.2,30.15,North,8,1.0,1.0,31,0.00,,,0.00,Wunderground v.1.15,2013-06-20 21:15:00,
2013-06-20 17:20:00,76.2,48.7,30.15,NNW,335,1.0,1.0,38,0.00,,,0.00,Wunderground v.1.15,2013-06-20 21:20:00,
2013-06-20 17:25:00,76.2,45.0,30.15,SSE,148,0.0,1.0,33,0.00,,,0.00,Wunderground v.1.15,2013-06-20 21:25:00,
2013-06-20 17:30:00,76.7,44.6,30.14,NNE,18,0.0,0.0,32,0.00,,,0.00,Wunderground v.1.15,2013-06-20 21:30:00,
2013-06-20 17:35:00,76.2,50.8,30.14,NNW,348,0.0,0.0,41,0.00,,,0.00,Wunderground v.1.15,2013-06-20 21:35:00,
2013-06-20 17:45:00,75.9,46.3,30.14,SE,141,0.0,0.0,35,0.00,,,0.00,Wunderground v.1.15,2013-06-20 21:45:00,
2013-06-20 17:50:00,76.0,44.8,30.14,SE,137,0.0,0.0,33,0.00,,,0.00,Wunderground v.1.15,2013-06-20 21:50:00,
2013-06-20 17:55:00,75.5,45.9,30.14,South,172,0.0,0.0,35,0.00,,,0.00,Wunderground v.1.15,2013-06-20 21:55:00,
2013-06-20 18:00:00,74.6,48.0,30.14,NNE,18,1.0,1.0,39,0.00,,,0.00,Wunderground v.1.15,2013-06-20 22:00:00,
2013-06-20 18:05:00,73.9,46.7,30.14,North,360,0.0,1.0,38,0.00,,,0.00,Wunderground v.1.15,2013-06-20 22:05:00,
2013-06-20 18:10:00,73.5,44.9,30.14,SE,128,0.0,0.0,36,0.00,,,0.00,Wunderground v.1.15,2013-06-20 22:10:00,
2013-06-20 18:15:00,73.2,43.9,30.14,South,172,0.0,0.0,35,0.00,,,0.00,Wunderground v.1.15,2013-06-20 22:15:00,
2013-06-20 18:20:00,72.9,45.8,30.14,East,85,0.0,1.0,38,0.00,,,0.00,Wunderground v.1.15,2013-06-20 22:20:00,
2013-06-20 18:25:00,72.6,46.2,30.14,West,280,0.0,1.0,39,0.00,,,0.00,Wunderground v.1.15,2013-06-20 22:25:00,
2013-06-20 18:30:00,72.1,47.7,30.14,NNW,330,0.0,2.0,42,0.00,,,0.00,Wunderground v.1.15,2013-06-20 22:30:00,
2013-06-20 18:40:00,71.6,49.7,30.14,NNW,337,1.0,1.0,46,0.00,,,0.00,Wunderground v.1.15,2013-06-20 22:40:00,
2013-06-20 18:45:00,70.9,47.9,30.14,SE,133,0.0,1.0,44,0.00,,,0.00,Wunderground v.1.15,2013-06-20 22:45:00,
2013-06-20 18:50:00,70.6,49.4,30.14,NNW,335,0.0,1.0,47,0.00,,,0.00,Wunderground v.1.15,2013-06-20 22:50:00,
2013-06-20 18:55:00,69.7,47.4,30.14,North,1,0.0,1.0,45,0.00,,,0.00,Wunderground v.1.15,2013-06-20 22:55:00,
2013-06-20 19:05:00,68.9,44.9,30.14,NNE,22,0.0,0.0,42,0.00,,,0.00,Wunderground v.1.15,2013-06-20 23:05:00,
2013-06-20 19:10:00,68.7,46.5,30.14,NNE,22,0.0,0.0,45,0.00,,,0.00,Wunderground v.1.15,2013-06-20 23:10:00,
2013-06-20 19:15:00,68.0,48.1,30.14,North,350,0.0,1.0,49,0.00,,,0.00,Wunderground v.1.15,2013-06-20 23:15:00,
2013-06-20 19:20:00,67.4,47.6,30.14,North,349,0.0,0.0,49,0.00,,,0.00,Wunderground v.1.15,2013-06-20 23:20:00,
2013-06-20 19:30:00,66.3,48.1,30.14,NNE,25,0.0,0.0,52,0.00,,,0.00,Wunderground v.1.15,2013-06-20 23:30:00,
2013-06-20 19:40:00,66.6,48.4,30.15,North,11,1.0,1.0,52,0.00,,,0.00,Wunderground v.1.15,2013-06-20 23:40:00,
2013-06-20 19:45:00,66.3,49.6,30.15,NE,39,1.0,1.0,55,0.00,,,0.00,Wunderground v.1.15,2013-06-20 23:45:00,
2013-06-20 19:50:00,66.0,47.3,30.15,NNW,343,1.0,2.0,51,0.00,,,0.00,Wunderground v.1.15,2013-06-20 23:50:00,
2013-06-20 19:55:00,65.7,48.1,30.15,NE,48,1.0,2.0,53,0.00,,,0.00,Wunderground v.1.15,2013-06-20 23:55:00,
2013-06-20 20:00:00,65.2,49.6,30.15,North,9,1.0,1.0,57,0.00,,,0.00,Wunderground v.1.15,2013-06-21 00:00:00,
2013-06-20 20:05:00,64.7,50.0,30.15,NNW,347,1.0,1.0,59,0.00,,,0.00,Wunderground v.1.15,2013-06-21 00:05:00,
2013-06-20 20:10:00,64.3,50.6,30.15,North,350,1.0,1.0,61,0.00,,,0.00,Wunderground v.1.15,2013-06-21 00:10:00,
2013-06-20 20:15:00,64.3,48.3,30.15,NE,41,1.0,1.0,56,0.00,,,0.00,Wunderground v.1.15,2013-06-21 00:15:00,
2013-06-20 20:20:00,64.0,51.6,30.15,NE,41,0.0,0.0,64,0.00,,,0.00,Wunderground v.1.15,2013-06-21 00:20:00,
2013-06-20 20:25:00,63.3,50.9,30.15,NE,41,0.0,0.0,64,0.00,,,0.00,Wunderground v.1.15,2013-06-21 00:25:00,
2013-06-20 20:35:00,62.3,50.0,30.15,NNE,28,0.0,1.0,64,0.00,,,0.00,Wunderground v.1.15,2013-06-21 00:35:00,
2013-06-20 20:40:00,61.7,49.8,30.15,NNW,327,0.0,2.0,65,0.00,,,0.00,Wunderground v.1.15,2013-06-21 00:40:00,
2013-06-20 20:50:00,61.2,50.6,30.16,NNW,333,0.0,0.0,68,0.00,,,0.00,Wunderground v.1.15,2013-06-21 00:50:00,
2013-06-20 20:55:00,60.9,51.0,30.16,NNW,333,0.0,0.0,70,0.00,,,0.00,Wunderground v.1.15,2013-06-21 00:55:00,
2013-06-20 21:00:00,60.5,49.9,30.16,NNW,333,0.0,0.0,68,0.00,,,0.00,Wunderground v.1.15,2013-06-21 01:00:00,
2013-06-20 21:05:00,60.3,49.7,30.16,NNW,333,0.0,0.0,68,0.00,,,0.00,Wunderground v.1.15,2013-06-21 01:05:00,
2013-06-20 21:10:00,59.8,49.2,30.16,NNW,333,0.0,0.0,68,0.00,,,0.00,Wunderground v.1.15,2013-06-21 01:10:00,
2013-06-20 21:20:00,59.0,49.6,30.17,NNW,335,0.0,0.0,71,0.00,,,0.00,Wunderground v.1.15,2013-06-21 01:20:00,
2013-06-20 21:30:00,58.2,48.8,30.17,NNW,335,0.0,0.0,71,0.00,,,0.00,Wunderground v.1.15,2013-06-21 01:30:00,
2013-06-20 21:35:00,57.7,48.7,30.17,NNW,336,0.0,0.0,72,0.00,,,0.00,Wunderground v.1.15,2013-06-21 01:35:00,
2013-06-20 21:40:00,57.2,48.6,30.17,NNW,335,0.0,0.0,73,0.00,,,0.00,Wunderground v.1.15,2013-06-21 01:40:00,
2013-06-20 21:45:00,56.9,48.3,30.17,NNW,335,0.0,0.0,73,0.00,,,0.00,Wunderground v.1.15,2013-06-21 01:45:00,
2013-06-20 21:50:00,56.6,48.4,30.17,NNW,335,0.0,0.0,74,0.00,,,0.00,Wunderground v.1.15,2013-06-21 01:50:00,
2013-06-20 22:00:00,56.2,48.4,30.17,NNW,335,0.0,0.0,75,0.00,,,0.00,Wunderground v.1.15,2013-06-21 02:00:00,
2013-06-20 22:05:00,56.1,48.6,30.17,NNW,335,0.0,0.0,76,0.00,,,0.00,Wunderground v.1.15,2013-06-21 02:05:00,
2013-06-20 22:10:00,55.9,48.8,30.17,NNW,335,0.0,0.0,77,0.00,,,0.00,Wunderground v.1.15,2013-06-21 02:10:00,
2013-06-20 22:20:00,55.7,48.6,30.17,NNW,335,0.0,0.0,77,0.00,,,0.00,Wunderground v.1.15,2013-06-21 02:20:00,
2013-06-20 22:25:00,55.6,48.8,30.18,NNW,335,0.0,0.0,78,0.00,,,0.00,Wunderground v.1.15,2013-06-21 02:25:00,
2013-06-20 22:30:00,55.3,48.9,30.18,SE,134,0.0,0.0,79,0.00,,,0.00,Wunderground v.1.15,2013-06-21 02:30:00,
2013-06-20 22:35:00,55.1,49.0,30.18,NNW,346,0.0,0.0,80,0.00,,,0.00,Wunderground v.1.15,2013-06-21 02:35:00,
2013-06-20 22:40:00,54.9,48.8,30.18,NNW,346,0.0,0.0,80,0.00,,,0.00,Wunderground v.1.15,2013-06-21 02:40:00,
2013-06-20 22:45:00,54.7,49.0,30.18,NNW,345,0.0,0.0,81,0.00,,,0.00,Wunderground v.1.15,2013-06-21 02:45:00,
2013-06-20 22:50:00,54.5,48.8,30.18,NNW,346,0.0,0.0,81,0.00,,,0.00,Wunderground v.1.15,2013-06-21 02:50:00,
2013-06-20 22:55:00,54.4,48.7,30.18,NNW,345,0.0,0.0,81,0.00,,,0.00,Wunderground v.1.15,2013-06-21 02:55:00,
2013-06-20 23:00:00,54.4,48.7,30.18,NNW,345,0.0,0.0,81,0.00,,,0.00,Wunderground v.1.15,2013-06-21 03:00:00,
2013-06-20 23:05:00,53.8,48.8,30.18,NNW,346,0.0,0.0,83,0.00,,,0.00,Wunderground v.1.15,2013-06-21 03:05:00,
2013-06-20 23:10:00,53.2,48.5,30.18,NNW,345,0.0,0.0,84,0.00,,,0.00,Wunderground v.1.15,2013-06-21 03:10:00,
2013-06-20 23:20:00,53.0,48.3,30.18,NNW,345,0.0,0.0,84,0.00,,,0.00,Wunderground v.1.15,2013-06-21 03:20:00,
2013-06-20 23:25:00,52.9,48.5,30.18,NNW,345,0.0,0.0,85,0.00,,,0.00,Wunderground v.1.15,2013-06-21 03:25:00,
2013-06-20 23:30:00,52.8,48.4,30.18,NNW,345,0.0,0.0,85,0.00,,,0.00,Wunderground v.1.15,2013-06-21 03:30:00,
2013-06-20 23:35:00,52.6,48.2,30.18,NNW,346,0.0,0.0,85,0.00,,,0.00,Wunderground v.1.15,2013-06-21 03:35:00,
2013-06-20 23:40:00,52.4,48.0,30.18,NNW,345,0.0,0.0,85,0.00,,,0.00,Wunderground v.1.15,2013-06-21 03:40:00,
2013-06-20 23:45:00,52.3,48.2,30.19,NNW,345,0.0,0.0,86,0.00,,,0.00,Wunderground v.1.15,2013-06-21 03:45:00,
2013-06-20 23:50:00,52.1,48.0,30.18,NNW,345,0.0,0.0,86,0.00,,,0.00,Wunderground v.1.15,2013-06-21 03:50:00,
2013-06-20 23:55:00,51.9,48.2,30.18,NNW,345,0.0,0.0,87,0.00,,,0.00,Wunderground v.1.15,2013-06-21 03:55:00,